sensor_id;sensor_type;location;lat;lon;timestamp;pressure;altitude;pressure_sealevel;temperature;humidity
43430;BME280;29028;43.234;27.896;2022-10-16T04:02:10;100895.09;;;9.68;86.24
43430;BME280;29028;43.234;27.896;2022-10-16T04:02:32;100891.38;;;9.69;86.28
43430;BME280;29028;43.234;27.896;2022-10-16T04:02:53;100894.75;;;9.71;86.32
43430;BME280;29028;43.234;27.896;2022-10-16T04:03:14;100891.38;;;9.69;86.18
43430;BME280;29028;43.234;27.896;2022-10-16T04:03:35;100896.94;;;9.67;86.42
43430;BME280;29028;43.234;27.896;2022-10-16T04:03:56;100893.56;;;9.65;86.41
43430;BME280;29028;43.234;27.896;2022-10-16T04:04:18;100899.44;;;9.69;86.25
43430;BME280;29028;43.234;27.896;2022-10-16T04:04:38;100889.72;;;9.68;86.22
43430;BME280;29028;43.234;27.896;2022-10-16T04:04:59;100892.06;;;9.71;86.27
43430;BME280;29028;43.234;27.896;2022-10-16T04:05:20;100901.66;;;9.73;86.29
43430;BME280;29028;43.234;27.896;2022-10-16T04:05:42;100892.56;;;9.74;85.99
43430;BME280;29028;43.234;27.896;2022-10-16T04:06:03;100894.91;;;9.77;86.01
43430;BME280;29028;43.234;27.896;2022-10-16T04:06:24;100899.47;;;9.77;86.00
43430;BME280;29028;43.234;27.896;2022-10-16T04:06:45;100893.25;;;9.76;86.09
43430;BME280;29028;43.234;27.896;2022-10-16T04:07:05;100898.97;;;9.73;86.14
43430;BME280;29028;43.234;27.896;2022-10-16T04:07:27;100889.22;;;9.72;86.07
43430;BME280;29028;43.234;27.896;2022-10-16T04:07:49;100896.59;;;9.70;86.08
43430;BME280;29028;43.234;27.896;2022-10-16T04:08:09;100889.88;;;9.74;86.04
43430;BME280;29028;43.234;27.896;2022-10-16T04:08:30;100894.59;;;9.72;86.21
43430;BME280;29028;43.234;27.896;2022-10-16T04:08:53;100889.72;;;9.76;86.04
43430;BME280;29028;43.234;27.896;2022-10-16T04:09:15;100896.28;;;9.73;86.06
43430;BME280;29028;43.234;27.896;2022-10-16T04:09:36;100899.63;;;9.75;85.88
43430;BME280;29028;43.234;27.896;2022-10-16T04:09:57;100896.94;;;9.75;86.01
43430;BME280;29028;43.234;27.896;2022-10-16T04:10:19;100887.84;;;9.76;85.95
43430;BME280;29028;43.234;27.896;2022-10-16T04:10:42;100896.78;;;9.77;85.91
43430;BME280;29028;43.234;27.896;2022-10-16T04:11:03;100885.38;;;9.75;86.04
43430;BME280;29028;43.234;27.896;2022-10-16T04:11:24;100890.75;;;9.75;85.97
43430;BME280;29028;43.234;27.896;2022-10-16T04:11:45;100892.06;;;9.71;85.96
43430;BME280;29028;43.234;27.896;2022-10-16T04:12:07;100883.84;;;9.72;86.18
43430;BME280;29028;43.234;27.896;2022-10-16T04:12:28;100892.06;;;9.71;86.13
43430;BME280;29028;43.234;27.896;2022-10-16T04:12:49;100898.13;;;9.73;86.07
43430;BME280;29028;43.234;27.896;2022-10-16T04:13:10;100889.22;;;9.72;86.08
43430;BME280;29028;43.234;27.896;2022-10-16T04:13:32;100895.09;;;9.76;86.08
43430;BME280;29028;43.234;27.896;2022-10-16T04:13:52;100897.59;;;9.77;85.97
43430;BME280;29028;43.234;27.896;2022-10-16T04:14:13;100883.19;;;9.78;85.82
43430;BME280;29028;43.234;27.896;2022-10-16T04:14:34;100895.09;;;9.76;85.85
43430;BME280;29028;43.234;27.896;2022-10-16T04:14:56;100893.25;;;9.76;85.76
43430;BME280;29028;43.234;27.896;2022-10-16T04:15:17;100900.66;;;9.74;86.01
43430;BME280;29028;43.234;27.896;2022-10-16T04:15:38;100889.53;;;9.77;85.96
43430;BME280;29028;43.234;27.896;2022-10-16T04:15:59;100898.47;;;9.78;85.84
43430;BME280;29028;43.234;27.896;2022-10-16T04:16:21;100892.41;;;9.76;85.85
43430;BME280;29028;43.234;27.896;2022-10-16T04:16:42;100900.81;;;9.73;85.88
43430;BME280;29028;43.234;27.896;2022-10-16T04:17:02;100886.69;;;9.71;86.03
43430;BME280;29028;43.234;27.896;2022-10-16T04:17:25;100890.38;;;9.62;85.83
43430;BME280;29028;43.234;27.896;2022-10-16T04:17:46;100903.00;;;9.69;86.01
43430;BME280;29028;43.234;27.896;2022-10-16T04:18:07;100890.06;;;9.65;86.00
43430;BME280;29028;43.234;27.896;2022-10-16T04:18:28;100895.59;;;9.63;86.19
43430;BME280;29028;43.234;27.896;2022-10-16T04:18:49;100893.91;;;9.62;86.32
43430;BME280;29028;43.234;27.896;2022-10-16T04:19:11;100897.13;;;9.66;86.27
43430;BME280;29028;43.234;27.896;2022-10-16T04:19:32;100889.03;;;9.66;86.22
43430;BME280;29028;43.234;27.896;2022-10-16T04:19:53;100903.50;;;9.65;86.25
43430;BME280;29028;43.234;27.896;2022-10-16T04:20:14;100892.75;;;9.65;86.25
43430;BME280;29028;43.234;27.896;2022-10-16T04:20:34;100897.44;;;9.63;86.21
43430;BME280;29028;43.234;27.896;2022-10-16T04:20:56;100897.44;;;9.63;86.35
43430;BME280;29028;43.234;27.896;2022-10-16T04:21:17;100898.63;;;9.68;86.25
43430;BME280;29028;43.234;27.896;2022-10-16T04:21:38;100894.75;;;9.63;86.15
43430;BME280;29028;43.234;27.896;2022-10-16T04:21:59;100904.69;;;9.62;86.34
43430;BME280;29028;43.234;27.896;2022-10-16T04:22:20;100903.00;;;9.61;86.23
43430;BME280;29028;43.234;27.896;2022-10-16T04:22:41;100902.66;;;9.64;86.46
43430;BME280;29028;43.234;27.896;2022-10-16T04:23:02;100902.00;;;9.62;86.35
43430;BME280;29028;43.234;27.896;2022-10-16T04:23:24;100898.59;;;9.60;86.56
43430;BME280;29028;43.234;27.896;2022-10-16T04:23:44;100900.31;;;9.61;86.49
43430;BME280;29028;43.234;27.896;2022-10-16T04:24:06;100899.78;;;9.58;86.46
43430;BME280;29028;43.234;27.896;2022-10-16T04:24:27;100894.25;;;9.59;86.70
43430;BME280;29028;43.234;27.896;2022-10-16T04:24:48;100897.44;;;9.63;86.54
43430;BME280;29028;43.234;27.896;2022-10-16T04:25:09;100905.69;;;9.61;86.41
43430;BME280;29028;43.234;27.896;2022-10-16T04:25:30;100903.16;;;9.60;86.46
43430;BME280;29028;43.234;27.896;2022-10-16T04:25:52;100893.06;;;9.62;86.47
43430;BME280;29028;43.234;27.896;2022-10-16T04:26:12;100905.69;;;9.61;86.35
43430;BME280;29028;43.234;27.896;2022-10-16T04:26:33;100893.41;;;9.59;86.45
43430;BME280;29028;43.234;27.896;2022-10-16T04:26:54;100895.25;;;9.58;86.53
43430;BME280;29028;43.234;27.896;2022-10-16T04:27:15;100898.28;;;9.63;86.51
43430;BME280;29028;43.234;27.896;2022-10-16T04:27:37;100899.28;;;9.62;86.39
43430;BME280;29028;43.234;27.896;2022-10-16T04:27:58;100899.81;;;9.66;86.41
43430;BME280;29028;43.234;27.896;2022-10-16T04:28:19;100890.38;;;9.62;86.27
43430;BME280;29028;43.234;27.896;2022-10-16T04:28:39;100902.00;;;9.62;86.30
43430;BME280;29028;43.234;27.896;2022-10-16T04:29:01;100903.00;;;9.61;86.36
43430;BME280;29028;43.234;27.896;2022-10-16T04:29:22;100896.75;;;9.61;86.58
43430;BME280;29028;43.234;27.896;2022-10-16T04:29:43;100898.59;;;9.60;86.68
43430;BME280;29028;43.234;27.896;2022-10-16T04:30:05;100906.16;;;9.57;86.56
43430;BME280;29028;43.234;27.896;2022-10-16T04:30:25;100908.34;;;9.53;86.69
43430;BME280;29028;43.234;27.896;2022-10-16T04:30:47;100900.28;;;9.53;86.74
43430;BME280;29028;43.234;27.896;2022-10-16T04:31:08;100900.94;;;9.55;86.70
43430;BME280;29028;43.234;27.896;2022-10-16T04:31:29;100897.94;;;9.58;86.66
43430;BME280;29028;43.234;27.896;2022-10-16T04:31:50;100904.84;;;9.61;86.58
43430;BME280;29028;43.234;27.896;2022-10-16T04:32:12;100906.00;;;9.58;86.57
43430;BME280;29028;43.234;27.896;2022-10-16T04:32:34;100900.28;;;9.53;86.71
43430;BME280;29028;43.234;27.896;2022-10-16T04:32:55;100904.31;;;9.57;86.77
43430;BME280;29028;43.234;27.896;2022-10-16T04:33:16;100897.59;;;9.53;86.62
43430;BME280;29028;43.234;27.896;2022-10-16T04:33:38;100903.47;;;9.57;86.71
43430;BME280;29028;43.234;27.896;2022-10-16T04:33:58;100911.06;;;9.61;86.48
43430;BME280;29028;43.234;27.896;2022-10-16T04:34:19;100907.69;;;9.59;86.46
43430;BME280;29028;43.234;27.896;2022-10-16T04:34:41;100909.19;;;9.54;86.52
43430;BME280;29028;43.234;27.896;2022-10-16T04:35:03;100908.19;;;9.55;86.29
43430;BME280;29028;43.234;27.896;2022-10-16T04:35:24;100894.75;;;9.55;86.76
43430;BME280;29028;43.234;27.896;2022-10-16T04:35:45;100895.75;;;9.54;86.79
43430;BME280;29028;43.234;27.896;2022-10-16T04:36:05;100908.03;;;9.56;86.74
43430;BME280;29028;43.234;27.896;2022-10-16T04:36:26;100904.31;;;9.57;86.72
43430;BME280;29028;43.234;27.896;2022-10-16T04:36:48;100896.41;;;9.56;86.66
43430;BME280;29028;43.234;27.896;2022-10-16T04:37:10;100905.34;;;9.56;86.71
43430;BME280;29028;43.234;27.896;2022-10-16T04:37:30;100902.31;;;9.59;86.81
43430;BME280;29028;43.234;27.896;2022-10-16T04:37:51;100897.94;;;9.58;86.74
43430;BME280;29028;43.234;27.896;2022-10-16T04:38:13;100902.81;;;9.55;86.73
43430;BME280;29028;43.234;27.896;2022-10-16T04:38:34;100907.34;;;9.54;86.71
43430;BME280;29028;43.234;27.896;2022-10-16T04:38:55;100904.16;;;9.59;86.77
43430;BME280;29028;43.234;27.896;2022-10-16T04:39:17;100902.31;;;9.59;86.61
43430;BME280;29028;43.234;27.896;2022-10-16T04:39:39;100903.00;;;9.61;86.60
43430;BME280;29028;43.234;27.896;2022-10-16T04:39:59;100906.84;;;9.59;86.60
43430;BME280;29028;43.234;27.896;2022-10-16T04:40:20;100897.94;;;9.58;86.67
43430;BME280;29028;43.234;27.896;2022-10-16T04:40:42;100911.22;;;9.60;86.59
43430;BME280;29028;43.234;27.896;2022-10-16T04:41:03;100894.25;;;9.59;86.61
43430;BME280;29028;43.234;27.896;2022-10-16T04:41:24;100893.88;;;9.54;86.66
43430;BME280;29028;43.234;27.896;2022-10-16T04:41:45;100910.53;;;9.58;86.74
43430;BME280;29028;43.234;27.896;2022-10-16T04:42:06;100901.28;;;9.60;86.65
43430;BME280;29028;43.234;27.896;2022-10-16T04:42:27;100901.28;;;9.60;86.68
43430;BME280;29028;43.234;27.896;2022-10-16T04:42:48;100897.94;;;9.58;86.69
43430;BME280;29028;43.234;27.896;2022-10-16T04:43:10;100905.84;;;9.60;86.64
43430;BME280;29028;43.234;27.896;2022-10-16T04:43:31;100902.66;;;9.56;86.62
43430;BME280;29028;43.234;27.896;2022-10-16T04:43:51;100907.84;;;9.58;86.52
43430;BME280;29028;43.234;27.896;2022-10-16T04:44:12;100911.03;;;9.53;86.56
43430;BME280;29028;43.234;27.896;2022-10-16T04:44:35;100904.66;;;9.54;86.63
43430;BME280;29028;43.234;27.896;2022-10-16T04:44:56;100906.81;;;9.51;86.84
43430;BME280;29028;43.234;27.896;2022-10-16T04:45:16;100907.34;;;9.54;86.79
43430;BME280;29028;43.234;27.896;2022-10-16T04:45:37;100905.81;;;9.52;86.90
43430;BME280;29028;43.234;27.896;2022-10-16T04:45:59;100912.72;;;9.54;86.97
43430;BME280;29028;43.234;27.896;2022-10-16T04:46:20;100908.50;;;9.52;86.70
43430;BME280;29028;43.234;27.896;2022-10-16T04:46:41;100907.84;;;9.58;86.80
43430;BME280;29028;43.234;27.896;2022-10-16T04:47:02;100911.69;;;9.55;86.87
43430;BME280;29028;43.234;27.896;2022-10-16T04:47:25;100912.72;;;9.54;86.78
43430;BME280;29028;43.234;27.896;2022-10-16T04:47:47;100906.31;;;9.55;86.87
43430;BME280;29028;43.234;27.896;2022-10-16T04:48:08;100912.56;;;9.56;86.90
43430;BME280;29028;43.234;27.896;2022-10-16T04:48:28;100907.69;;;9.59;86.84
43430;BME280;29028;43.234;27.896;2022-10-16T04:48:49;100905.69;;;9.61;86.77
43430;BME280;29028;43.234;27.896;2022-10-16T04:49:11;100905.84;;;9.60;86.68
43430;BME280;29028;43.234;27.896;2022-10-16T04:49:32;100906.66;;;9.60;86.68
43430;BME280;29028;43.234;27.896;2022-10-16T04:49:53;100902.66;;;9.64;86.68
43430;BME280;29028;43.234;27.896;2022-10-16T04:50:14;100904.69;;;9.62;86.62
43430;BME280;29028;43.234;27.896;2022-10-16T04:50:36;100905.50;;;9.63;86.53
43430;BME280;29028;43.234;27.896;2022-10-16T04:50:56;100908.03;;;9.56;86.69
43430;BME280;29028;43.234;27.896;2022-10-16T04:51:17;100915.91;;;9.58;86.86
43430;BME280;29028;43.234;27.896;2022-10-16T04:51:39;100902.00;;;9.62;86.87
43430;BME280;29028;43.234;27.896;2022-10-16T04:52:00;100912.91;;;9.61;86.93
43430;BME280;29028;43.234;27.896;2022-10-16T04:52:21;100910.56;;;9.66;86.82
43430;BME280;29028;43.234;27.896;2022-10-16T04:52:44;100914.25;;;9.65;86.63
43430;BME280;29028;43.234;27.896;2022-10-16T04:53:06;100912.22;;;9.67;86.59
43430;BME280;29028;43.234;27.896;2022-10-16T04:53:27;100899.63;;;9.67;86.47
43430;BME280;29028;43.234;27.896;2022-10-16T04:53:49;100903.84;;;9.70;86.41
43430;BME280;29028;43.234;27.896;2022-10-16T04:54:10;100921.50;;;9.72;86.33
43430;BME280;29028;43.234;27.896;2022-10-16T04:54:30;100907.34;;;9.70;86.21
43430;BME280;29028;43.234;27.896;2022-10-16T04:54:51;100919.63;;;9.73;86.25
43430;BME280;29028;43.234;27.896;2022-10-16T04:55:12;100905.16;;;9.74;86.24
43430;BME280;29028;43.234;27.896;2022-10-16T04:55:34;100912.25;;;9.75;86.27
43430;BME280;29028;43.234;27.896;2022-10-16T04:55:55;100910.75;;;9.72;86.13
43430;BME280;29028;43.234;27.896;2022-10-16T04:56:17;100899.97;;;9.72;86.11
43430;BME280;29028;43.234;27.896;2022-10-16T04:56:38;100916.63;;;9.76;86.05
43430;BME280;29028;43.234;27.896;2022-10-16T04:57:06;100916.63;;;9.76;86.08
43430;BME280;29028;43.234;27.896;2022-10-16T04:57:29;100912.41;;;9.81;86.00
43430;BME280;29028;43.234;27.896;2022-10-16T04:57:50;100912.25;;;9.83;85.82
43430;BME280;29028;43.234;27.896;2022-10-16T04:58:10;100916.28;;;9.87;85.67
43430;BME280;29028;43.234;27.896;2022-10-16T04:58:31;100905.34;;;9.88;85.70
43430;BME280;29028;43.234;27.896;2022-10-16T04:58:53;100907.53;;;9.93;85.45
43430;BME280;29028;43.234;27.896;2022-10-16T04:59:14;100911.06;;;9.93;85.12
43430;BME280;29028;43.234;27.896;2022-10-16T04:59:35;100911.91;;;9.94;85.24
43430;BME280;29028;43.234;27.896;2022-10-16T04:59:56;100913.75;;;9.93;85.33
43430;BME280;29028;43.234;27.896;2022-10-16T05:00:18;100912.44;;;9.89;85.20
43430;BME280;29028;43.234;27.896;2022-10-16T05:00:40;100916.44;;;9.93;85.28
43430;BME280;29028;43.234;27.896;2022-10-16T05:01:00;100913.59;;;9.95;85.09
43430;BME280;29028;43.234;27.896;2022-10-16T05:01:21;100910.06;;;9.94;85.04
43430;BME280;29028;43.234;27.896;2022-10-16T05:01:42;100919.66;;;9.97;85.05
43430;BME280;29028;43.234;27.896;2022-10-16T05:02:04;100919.66;;;9.97;85.02
43430;BME280;29028;43.234;27.896;2022-10-16T05:02:25;100918.16;;;9.94;85.05
43430;BME280;29028;43.234;27.896;2022-10-16T05:02:49;100916.78;;;9.98;85.03
43430;BME280;29028;43.234;27.896;2022-10-16T05:03:09;100917.63;;;9.99;84.95
43430;BME280;29028;43.234;27.896;2022-10-16T05:03:31;100917.63;;;9.99;85.03
43430;BME280;29028;43.234;27.896;2022-10-16T05:03:52;100913.75;;;10.01;84.54
43430;BME280;29028;43.234;27.896;2022-10-16T05:04:13;100909.94;;;10.04;84.64
43430;BME280;29028;43.234;27.896;2022-10-16T05:04:35;100918.00;;;10.04;84.61
43430;BME280;29028;43.234;27.896;2022-10-16T05:04:56;100921.34;;;10.06;84.63
43430;BME280;29028;43.234;27.896;2022-10-16T05:05:18;100920.19;;;10.08;84.49
43430;BME280;29028;43.234;27.896;2022-10-16T05:05:42;100912.78;;;10.10;84.44
43430;BME280;29028;43.234;27.896;2022-10-16T05:06:05;100924.72;;;10.08;84.29
43430;BME280;29028;43.234;27.896;2022-10-16T05:06:26;100909.41;;;10.08;84.37
43430;BME280;29028;43.234;27.896;2022-10-16T05:06:48;100921.34;;;10.06;84.52
43430;BME280;29028;43.234;27.896;2022-10-16T05:07:09;100896.75;;;10.01;84.53
43430;BME280;29028;43.234;27.896;2022-10-16T05:07:30;100920.19;;;10.08;84.44
43430;BME280;29028;43.234;27.896;2022-10-16T05:07:51;100922.19;;;10.06;84.35
43430;BME280;29028;43.234;27.896;2022-10-16T05:08:14;100913.13;;;10.07;84.32
43430;BME280;29028;43.234;27.896;2022-10-16T05:08:35;100907.22;;;10.12;84.33
43430;BME280;29028;43.234;27.896;2022-10-16T05:08:55;100917.97;;;10.12;84.32
43430;BME280;29028;43.234;27.896;2022-10-16T05:09:16;100912.44;;;10.13;84.28
43430;BME280;29028;43.234;27.896;2022-10-16T05:09:38;100918.66;;;10.14;84.17
43430;BME280;29028;43.234;27.896;2022-10-16T05:09:59;100911.09;;;10.09;84.03
43430;BME280;29028;43.234;27.896;2022-10-16T05:10:20;100916.31;;;10.11;84.21
43430;BME280;29028;43.234;27.896;2022-10-16T05:10:41;100905.69;;;10.09;84.07
43430;BME280;29028;43.234;27.896;2022-10-16T05:11:04;100915.28;;;10.12;84.05
43430;BME280;29028;43.234;27.896;2022-10-16T05:11:24;100907.41;;;10.10;83.95
43430;BME280;29028;43.234;27.896;2022-10-16T05:11:45;100912.97;;;10.09;84.07
43430;BME280;29028;43.234;27.896;2022-10-16T05:12:06;100922.03;;;10.16;84.12
43430;BME280;29028;43.234;27.896;2022-10-16T05:12:28;100906.03;;;10.14;83.90
43430;BME280;29028;43.234;27.896;2022-10-16T05:12:49;100922.88;;;10.16;84.11
43430;BME280;29028;43.234;27.896;2022-10-16T05:13:11;100921.16;;;10.15;84.09
43430;BME280;29028;43.234;27.896;2022-10-16T05:13:32;100919.84;;;10.19;83.89
43430;BME280;29028;43.234;27.896;2022-10-16T05:13:54;100924.19;;;10.20;83.92
43430;BME280;29028;43.234;27.896;2022-10-16T05:14:15;100931.59;;;10.26;83.63
43430;BME280;29028;43.234;27.896;2022-10-16T05:14:36;100930.44;;;10.21;83.58
43430;BME280;29028;43.234;27.896;2022-10-16T05:14:57;100912.25;;;10.23;83.63
43430;BME280;29028;43.234;27.896;2022-10-16T05:15:19;100937.34;;;10.23;83.54
43430;BME280;29028;43.234;27.896;2022-10-16T05:15:40;100925.91;;;10.21;83.74
43430;BME280;29028;43.234;27.896;2022-10-16T05:16:02;100928.06;;;10.26;83.59
43430;BME280;29028;43.234;27.896;2022-10-16T05:16:23;100939.50;;;10.28;83.41
43430;BME280;29028;43.234;27.896;2022-10-16T05:16:44;100927.72;;;10.29;83.44
43430;BME280;29028;43.234;27.896;2022-10-16T05:17:06;100930.94;;;10.32;83.39
43430;BME280;29028;43.234;27.896;2022-10-16T05:17:26;100934.63;;;10.31;83.39
43430;BME280;29028;43.234;27.896;2022-10-16T05:17:52;100926.88;;;10.36;83.11
43430;BME280;29028;43.234;27.896;2022-10-16T05:18:13;100929.41;;;10.38;82.90
43430;BME280;29028;43.234;27.896;2022-10-16T05:18:35;100936.28;;;10.40;82.83
43430;BME280;29028;43.234;27.896;2022-10-16T05:18:56;100933.09;;;10.37;82.81
43430;BME280;29028;43.234;27.896;2022-10-16T05:19:17;100932.44;;;10.35;82.87
43430;BME280;29028;43.234;27.896;2022-10-16T05:19:38;100935.97;;;10.35;83.02
43430;BME280;29028;43.234;27.896;2022-10-16T05:19:59;100938.81;;;10.34;83.14
43430;BME280;29028;43.234;27.896;2022-10-16T05:20:21;100928.75;;;10.36;82.89
43430;BME280;29028;43.234;27.896;2022-10-16T05:20:42;100934.78;;;10.38;82.85
43430;BME280;29028;43.234;27.896;2022-10-16T05:21:03;100930.91;;;10.40;82.59
43430;BME280;29028;43.234;27.896;2022-10-16T05:21:24;100932.94;;;10.38;82.58
43430;BME280;29028;43.234;27.896;2022-10-16T05:21:46;100942.19;;;10.44;82.61
43430;BME280;29028;43.234;27.896;2022-10-16T05:22:07;100931.25;;;10.45;82.54
43430;BME280;29028;43.234;27.896;2022-10-16T05:22:28;100944.38;;;10.40;82.50
43430;BME280;29028;43.234;27.896;2022-10-16T05:22:49;100938.47;;;10.45;82.45
43430;BME280;29028;43.234;27.896;2022-10-16T05:23:11;100932.25;;;10.44;82.42
43430;BME280;29028;43.234;27.896;2022-10-16T05:23:32;100936.97;;;10.42;82.46
43430;BME280;29028;43.234;27.896;2022-10-16T05:23:53;100939.47;;;10.44;82.64
43430;BME280;29028;43.234;27.896;2022-10-16T05:24:14;100946.38;;;10.46;82.58
43430;BME280;29028;43.234;27.896;2022-10-16T05:24:35;100947.03;;;10.48;82.45
43430;BME280;29028;43.234;27.896;2022-10-16T05:24:57;100941.31;;;10.51;82.38
43430;BME280;29028;43.234;27.896;2022-10-16T05:25:18;100945.53;;;10.54;82.24
43430;BME280;29028;43.234;27.896;2022-10-16T05:25:38;100943.00;;;10.52;82.13
43430;BME280;29028;43.234;27.896;2022-10-16T05:26:00;100954.63;;;10.53;82.14
43430;BME280;29028;43.234;27.896;2022-10-16T05:26:22;100949.06;;;10.54;82.01
43430;BME280;29028;43.234;27.896;2022-10-16T05:26:42;100957.47;;;10.59;82.00
43430;BME280;29028;43.234;27.896;2022-10-16T05:27:03;100955.78;;;10.58;81.88
43430;BME280;29028;43.234;27.896;2022-10-16T05:27:24;100953.09;;;10.58;81.90
43430;BME280;29028;43.234;27.896;2022-10-16T05:27:47;100954.78;;;10.59;81.69
43430;BME280;29028;43.234;27.896;2022-10-16T05:28:08;100954.59;;;10.61;81.62
43430;BME280;29028;43.234;27.896;2022-10-16T05:28:30;100956.97;;;10.64;81.63
43430;BME280;29028;43.234;27.896;2022-10-16T05:28:51;100957.44;;;10.67;81.32
43430;BME280;29028;43.234;27.896;2022-10-16T05:29:13;100955.25;;;10.71;81.45
43430;BME280;29028;43.234;27.896;2022-10-16T05:29:34;100940.63;;;10.65;81.22
43430;BME280;29028;43.234;27.896;2022-10-16T05:29:55;100950.22;;;10.68;81.25
43430;BME280;29028;43.234;27.896;2022-10-16T05:30:16;100951.22;;;10.67;81.40
43430;BME280;29028;43.234;27.896;2022-10-16T05:30:37;100959.81;;;10.70;81.22
43430;BME280;29028;43.234;27.896;2022-10-16T05:31:04;100949.22;;;10.69;81.20
43430;BME280;29028;43.234;27.896;2022-10-16T05:31:25;100952.56;;;10.71;81.32
43430;BME280;29028;43.234;27.896;2022-10-16T05:31:46;100942.47;;;10.65;80.99
43430;BME280;29028;43.234;27.896;2022-10-16T05:32:07;100957.78;;;10.72;81.19
43430;BME280;29028;43.234;27.896;2022-10-16T05:32:28;100949.34;;;10.75;81.07
43430;BME280;29028;43.234;27.896;2022-10-16T05:32:52;100956.44;;;10.76;80.93
43430;BME280;29028;43.234;27.896;2022-10-16T05:33:12;100948.69;;;10.73;80.95
43430;BME280;29028;43.234;27.896;2022-10-16T05:33:33;100960.13;;;10.75;80.83
43430;BME280;29028;43.234;27.896;2022-10-16T05:33:58;100967.00;;;10.78;80.92
43430;BME280;29028;43.234;27.896;2022-10-16T05:34:19;100958.44;;;10.82;80.91
43430;BME280;29028;43.234;27.896;2022-10-16T05:34:41;100962.16;;;10.81;80.73
43430;BME280;29028;43.234;27.896;2022-10-16T05:35:02;100962.44;;;10.86;80.59
43430;BME280;29028;43.234;27.896;2022-10-16T05:35:23;100963.78;;;10.90;80.50
43430;BME280;29028;43.234;27.896;2022-10-16T05:35:44;100958.06;;;10.93;80.39
43430;BME280;29028;43.234;27.896;2022-10-16T05:36:07;100964.81;;;10.89;80.20
43430;BME280;29028;43.234;27.896;2022-10-16T05:36:28;100960.59;;;10.95;80.35
43430;BME280;29028;43.234;27.896;2022-10-16T05:36:49;100957.56;;;10.90;80.18
43430;BME280;29028;43.234;27.896;2022-10-16T05:37:11;100968.34;;;10.90;80.15
43430;BME280;29028;43.234;27.896;2022-10-16T05:37:33;100972.19;;;11.03;79.84
43430;BME280;29028;43.234;27.896;2022-10-16T05:37:54;100973.50;;;11.07;79.59
43430;BME280;29028;43.234;27.896;2022-10-16T05:38:14;100968.09;;;11.07;79.52
43430;BME280;29028;43.234;27.896;2022-10-16T05:38:36;100974.34;;;11.08;79.57
43430;BME280;29028;43.234;27.896;2022-10-16T05:38:58;100966.44;;;11.06;79.37
43430;BME280;29028;43.234;27.896;2022-10-16T05:39:19;100973.81;;;11.12;79.21
43430;BME280;29028;43.234;27.896;2022-10-16T05:39:40;100959.53;;;11.04;79.16
43430;BME280;29028;43.234;27.896;2022-10-16T05:40:01;100963.41;;;11.09;79.33
43430;BME280;29028;43.234;27.896;2022-10-16T05:40:23;100965.06;;;11.10;79.34
43430;BME280;29028;43.234;27.896;2022-10-16T05:40:50;100963.72;;;11.06;79.37
43430;BME280;29028;43.234;27.896;2022-10-16T05:41:11;100976.16;;;11.15;79.16
43430;BME280;29028;43.234;27.896;2022-10-16T05:41:33;100968.56;;;11.19;78.88
43430;BME280;29028;43.234;27.896;2022-10-16T05:41:54;100973.59;;;11.22;78.98
43430;BME280;29028;43.234;27.896;2022-10-16T05:42:15;100974.50;;;11.14;78.70
43430;BME280;29028;43.234;27.896;2022-10-16T05:42:35;100977.19;;;11.14;79.03
43430;BME280;29028;43.234;27.896;2022-10-16T05:42:57;100969.06;;;11.22;78.88
43430;BME280;29028;43.234;27.896;2022-10-16T05:43:18;100975.09;;;11.24;78.82
43430;BME280;29028;43.234;27.896;2022-10-16T05:43:39;100967.22;;;11.23;78.69
43430;BME280;29028;43.234;27.896;2022-10-16T05:44:00;100970.41;;;11.26;78.68
43430;BME280;29028;43.234;27.896;2022-10-16T05:44:24;100967.34;;;11.29;78.40
43430;BME280;29028;43.234;27.896;2022-10-16T05:44:45;100960.63;;;11.25;78.17
43430;BME280;29028;43.234;27.896;2022-10-16T05:45:09;100971.22;;;11.27;78.44
43430;BME280;29028;43.234;27.896;2022-10-16T05:45:30;100962.47;;;11.25;78.30
43430;BME280;29028;43.234;27.896;2022-10-16T05:45:55;100965.50;;;11.30;78.35
43430;BME280;29028;43.234;27.896;2022-10-16T05:46:18;100971.38;;;11.33;78.17
43430;BME280;29028;43.234;27.896;2022-10-16T05:46:39;100969.03;;;11.30;78.28
43430;BME280;29028;43.234;27.896;2022-10-16T05:47:00;100969.69;;;11.32;78.33
43430;BME280;29028;43.234;27.896;2022-10-16T05:47:21;100966.63;;;11.35;78.24
43430;BME280;29028;43.234;27.896;2022-10-16T05:47:42;100967.78;;;11.41;77.99
43430;BME280;29028;43.234;27.896;2022-10-16T05:48:05;100966.47;;;11.37;77.91
43430;BME280;29028;43.234;27.896;2022-10-16T05:48:26;100964.44;;;11.39;77.97
43430;BME280;29028;43.234;27.896;2022-10-16T05:48:47;100969.78;;;11.47;77.87
43430;BME280;29028;43.234;27.896;2022-10-16T05:49:08;100968.59;;;11.49;77.56
43430;BME280;29028;43.234;27.896;2022-10-16T05:49:29;100974.16;;;11.48;77.50
43430;BME280;29028;43.234;27.896;2022-10-16T05:49:50;100973.13;;;11.49;77.46
43430;BME280;29028;43.234;27.896;2022-10-16T05:50:11;100975.66;;;11.50;77.27
43430;BME280;29028;43.234;27.896;2022-10-16T05:50:32;100971.13;;;11.51;77.19
43430;BME280;29028;43.234;27.896;2022-10-16T05:50:58;100970.44;;;11.49;77.29
43430;BME280;29028;43.234;27.896;2022-10-16T05:51:19;100970.09;;;11.52;77.49
43430;BME280;29028;43.234;27.896;2022-10-16T05:51:40;100969.56;;;11.56;77.18
43430;BME280;29028;43.234;27.896;2022-10-16T05:52:02;100967.53;;;11.58;77.07
43430;BME280;29028;43.234;27.896;2022-10-16T05:52:24;100966.84;;;11.56;77.08
43430;BME280;29028;43.234;27.896;2022-10-16T05:52:45;100966.69;;;11.58;76.91
43430;BME280;29028;43.234;27.896;2022-10-16T05:53:05;100979.34;;;11.57;77.03